CMA-CGM Fort Saint Georges — FQWZ — position and weather

sailwx.info

Track history (hours):
 
Tides and Currents Weather Stations Pressure Air Temp Water Temp Dewpoint Dewpoint Depression Visibility Wind Speed Wind Dir Waves Ship Positions

CMA-CGM Fort Saint Georges

Last reported at 2017-Nov-19 03:55 UTC. Time now 2017-Nov-20 15:17 UTC.
Position N 16°10' W 061°33'.

Length 197 m; beam 30 m.

Type: Cargo ship. MMSI: 226321000.

Date/timePositionNaut miles runAvg speedWind from/ knotsBaromVisibWave heightAir tempDewpointWater temp
2017-Nov-19 03:55N 16°10' W 061°33'4 7.9
2017-Nov-19 03:28N 16°14' W 061°32'0 0.8
2017-Nov-19 03:00N 16°14' W 061°33'0 0.0
2017-Nov-19 02:30N 16°14' W 061°33'0 0.0
2017-Nov-19 02:00N 16°14' W 061°33'0 0.0
2017-Nov-19 01:30N 16°14' W 061°33'0 0.0
2017-Nov-19 01:00N 16°14' W 061°33'0 0.0
2017-Nov-19 00:30N 16°14' W 061°33'0 0.0
2017-Nov-18 23:51N 16°14' W 061°33'0 0.0
2017-Nov-18 23:30N 16°14' W 061°33'0 0.0
2017-Nov-18 22:57N 16°14' W 061°33'0 0.0
2017-Nov-18 22:30N 16°14' W 061°33'0 0.0
2017-Nov-18 22:00N 16°14' W 061°33'0 0.0
2017-Nov-18 21:30N 16°14' W 061°33'0 0.0
2017-Nov-18 21:00N 16°14' W 061°33'0 0.0
2017-Nov-18 20:30N 16°14' W 061°33'0 0.0
2017-Nov-18 19:33N 16°14' W 061°33'0 0.0
2017-Nov-18 19:30N 16°14' W 061°33'0 0.0
2017-Nov-18 18:51N 16°14' W 061°33'0 0.0
2017-Nov-18 18:30N 16°14' W 061°33'0 0.0
2017-Nov-18 18:00N 16°14' W 061°33'0 0.0
2017-Nov-18 17:30N 16°14' W 061°33'0 0.0
2017-Nov-18 17:00N 16°14' W 061°33'0 0.0
2017-Nov-18 16:30N 16°14' W 061°33'0 0.0
2017-Nov-18 16:00N 16°14' W 061°33'0 0.0
2017-Nov-18 12:36N 16°14' W 061°33'0 0.1
2017-Nov-18 12:30N 16°14' W 061°33'0 0.0
2017-Nov-18 11:57N 16°14' W 061°33'0 0.0
2017-Nov-18 11:30N 16°14' W 061°33'0 0.0
2017-Nov-18 10:54N 16°14' W 061°33'0 0.0
2017-Nov-18 10:30N 16°14' W 061°33'0 0.0
2017-Nov-18 10:00N 16°14' W 061°33'1 1.2
2017-Nov-18 09:30N 16°14' W 061°32'4 8.6
2017-Nov-18 09:01N 16°09' W 061°31'4 7.1
2017-Nov-18 08:30N 16°07' W 061°29'9511.8
2017-Nov-18 00:27N 14°36' W 061°03'0 0.0
2017-Nov-18 00:00N 14°36' W 061°03'0 0.0
2017-Nov-17 23:30N 14°36' W 061°03'0 0.0
2017-Nov-17 23:00N 14°36' W 061°03'0 0.0
2017-Nov-17 22:30N 14°36' W 061°03'0 0.0
2017-Nov-17 21:57N 14°36' W 061°03'0 0.0
2017-Nov-17 21:21N 14°36' W 061°03'0 0.0
2017-Nov-17 21:00N 14°36' W 061°03'0 0.0
2017-Nov-17 20:30N 14°36' W 061°03'0 0.0
2017-Nov-17 20:00N 14°36' W 061°03'0 0.0
2017-Nov-17 19:30N 14°36' W 061°03'0 0.0
2017-Nov-17 19:00N 14°36' W 061°03'0 0.0
2017-Nov-17 18:24N 14°36' W 061°03'0 0.0
2017-Nov-17 18:00N 14°36' W 061°03'0 0.0
2017-Nov-17 17:30N 14°36' W 061°03'0 0.0
2017-Nov-17 17:00N 14°36' W 061°03'0 0.0
2017-Nov-17 16:30N 14°36' W 061°03'0 0.0
2017-Nov-17 16:00N 14°36' W 061°03'0 0.0
2017-Nov-17 15:30N 14°36' W 061°03'0 0.0
2017-Nov-17 15:00N 14°36' W 061°03'0 0.0
2017-Nov-17 14:30N 14°36' W 061°03'0 0.0
2017-Nov-17 14:00N 14°36' W 061°03'0 0.0
2017-Nov-17 01:15N 14°36' W 061°03'0 0.0
2017-Nov-17 00:18N 14°36' W 061°03'0 0.0
2017-Nov-16 23:54N 14°36' W 061°03'0 0.0
2017-Nov-16 20:48N 14°36' W 061°03'0 0.0
2017-Nov-16 18:24N 14°36' W 061°03'0 0.0
2017-Nov-16 16:15N 14°36' W 061°03'1 2.4
2017-Nov-16 16:00N 14°35' W 061°04'3 5.4
2017-Nov-16 15:26N 14°35' W 061°07'1 2.8
2017-Nov-16 14:59N 14°35' W 061°08'6 7.0
2017-Nov-16 14:11N 14°35' W 061°14'0 2.4
2017-Nov-16 14:01N 14°35' W 061°14'5 6.9
2017-Nov-16 13:21N 14°38' W 061°17'12718.1
2017-Nov-16 06:19N 16°26' W 062°28'918.6
2017-Nov-16 05:50N 16°33' W 062°32'9115.8
2017-Nov-16 00:03N 17°59' W 063°05'1 0.1
2017-Nov-15 09:56N 18°00' W 063°05'8212.3
2017-Nov-15 03:17N 16°45' W 062°31'413.8
2017-Nov-15 03:00N 16°42' W 062°28'713.9
2017-Nov-15 02:30N 16°37' W 062°23'713.5
2017-Nov-15 02:01N 16°32' W 062°19'713.7
2017-Nov-15 01:30N 16°27' W 062°14'713.8
2017-Nov-15 01:00N 16°22' W 062°09'713.7
2017-Nov-15 00:30N 16°17' W 062°05'713.3
2017-Nov-15 00:00N 16°11' W 061°60'813.3
2017-Nov-14 23:24N 16°05' W 061°55'613.4
2017-Nov-14 22:56N 16°00' W 061°50'613.5
2017-Nov-14 22:30N 15°56' W 061°46'1113.0
2017-Nov-14 21:41N 15°56' W 061°35'912.8
2017-Nov-14 20:58N 16°04' W 061°30'710.5
2017-Nov-14 20:20N 16°10' W 061°33'310.5
2017-Nov-14 20:01N 16°13' W 061°32'1 0.2
2017-Nov-14 16:46N 16°14' W 061°33'  
Track history (hours):
 
Tides and Currents Weather Stations Pressure Air Temp Water Temp Dewpoint Dewpoint Depression Visibility Wind Speed Wind Dir Waves Ship Positions

CMA-CGM Fort Saint Georges

Last reported at 2017-Nov-19 03:55 UTC. Time now 2017-Nov-20 15:17 UTC.
Position N 16°10' W 061°33'.

Length 197 m; beam 30 m.

Type: Cargo ship. MMSI: 226321000.

Date/timePositionNaut miles runAvg speedWind from/ knotsBaromVisibWave heightAir tempDewpointWater temp
2017-Nov-19 03:55N 16°10' W 061°33'4 7.9
2017-Nov-19 03:28N 16°14' W 061°32'0 0.8
2017-Nov-19 03:00N 16°14' W 061°33'0 0.0
2017-Nov-19 02:30N 16°14' W 061°33'0 0.0
2017-Nov-19 02:00N 16°14' W 061°33'0 0.0
2017-Nov-19 01:30N 16°14' W 061°33'0 0.0
2017-Nov-19 01:00N 16°14' W 061°33'0 0.0
2017-Nov-19 00:30N 16°14' W 061°33'0 0.0
2017-Nov-18 23:51N 16°14' W 061°33'0 0.0
2017-Nov-18 23:30N 16°14' W 061°33'0 0.0
2017-Nov-18 22:57N 16°14' W 061°33'0 0.0
2017-Nov-18 22:30N 16°14' W 061°33'0 0.0
2017-Nov-18 22:00N 16°14' W 061°33'0 0.0
2017-Nov-18 21:30N 16°14' W 061°33'0 0.0
2017-Nov-18 21:00N 16°14' W 061°33'0 0.0
2017-Nov-18 20:30N 16°14' W 061°33'0 0.0
2017-Nov-18 19:33N 16°14' W 061°33'0 0.0
2017-Nov-18 19:30N 16°14' W 061°33'0 0.0
2017-Nov-18 18:51N 16°14' W 061°33'0 0.0
2017-Nov-18 18:30N 16°14' W 061°33'0 0.0
2017-Nov-18 18:00N 16°14' W 061°33'0 0.0
2017-Nov-18 17:30N 16°14' W 061°33'0 0.0
2017-Nov-18 17:00N 16°14' W 061°33'0 0.0
2017-Nov-18 16:30N 16°14' W 061°33'0 0.0
2017-Nov-18 16:00N 16°14' W 061°33'0 0.0
2017-Nov-18 12:36N 16°14' W 061°33'0 0.1
2017-Nov-18 12:30N 16°14' W 061°33'0 0.0
2017-Nov-18 11:57N 16°14' W 061°33'0 0.0
2017-Nov-18 11:30N 16°14' W 061°33'0 0.0
2017-Nov-18 10:54N 16°14' W 061°33'0 0.0
2017-Nov-18 10:30N 16°14' W 061°33'0 0.0
2017-Nov-18 10:00N 16°14' W 061°33'1 1.2
2017-Nov-18 09:30N 16°14' W 061°32'4 8.6
2017-Nov-18 09:01N 16°09' W 061°31'4 7.1
2017-Nov-18 08:30N 16°07' W 061°29'9511.8
2017-Nov-18 00:27N 14°36' W 061°03'0 0.0
2017-Nov-18 00:00N 14°36' W 061°03'0 0.0
2017-Nov-17 23:30N 14°36' W 061°03'0 0.0
2017-Nov-17 23:00N 14°36' W 061°03'0 0.0
2017-Nov-17 22:30N 14°36' W 061°03'0 0.0
2017-Nov-17 21:57N 14°36' W 061°03'0 0.0
2017-Nov-17 21:21N 14°36' W 061°03'0 0.0
2017-Nov-17 21:00N 14°36' W 061°03'0 0.0
2017-Nov-17 20:30N 14°36' W 061°03'0 0.0
2017-Nov-17 20:00N 14°36' W 061°03'0 0.0
2017-Nov-17 19:30N 14°36' W 061°03'0 0.0
2017-Nov-17 19:00N 14°36' W 061°03'0 0.0
2017-Nov-17 18:24N 14°36' W 061°03'0 0.0
2017-Nov-17 18:00N 14°36' W 061°03'0 0.0
2017-Nov-17 17:30N 14°36' W 061°03'0 0.0
2017-Nov-17 17:00N 14°36' W 061°03'0 0.0
2017-Nov-17 16:30N 14°36' W 061°03'0 0.0
2017-Nov-17 16:00N 14°36' W 061°03'0 0.0
2017-Nov-17 15:30N 14°36' W 061°03'0 0.0
2017-Nov-17 15:00N 14°36' W 061°03'0 0.0
2017-Nov-17 14:30N 14°36' W 061°03'0 0.0
2017-Nov-17 14:00N 14°36' W 061°03'0 0.0
2017-Nov-17 01:15N 14°36' W 061°03'0 0.0
2017-Nov-17 00:18N 14°36' W 061°03'0 0.0
2017-Nov-16 23:54N 14°36' W 061°03'0 0.0
2017-Nov-16 20:48N 14°36' W 061°03'0 0.0
2017-Nov-16 18:24N 14°36' W 061°03'0 0.0
2017-Nov-16 16:15N 14°36' W 061°03'1 2.4
2017-Nov-16 16:00N 14°35' W 061°04'3 5.4
2017-Nov-16 15:26N 14°35' W 061°07'1 2.8
2017-Nov-16 14:59N 14°35' W 061°08'6 7.0
2017-Nov-16 14:11N 14°35' W 061°14'0 2.4
2017-Nov-16 14:01N 14°35' W 061°14'5 6.9
2017-Nov-16 13:21N 14°38' W 061°17'12718.1
2017-Nov-16 06:19N 16°26' W 062°28'918.6
2017-Nov-16 05:50N 16°33' W 062°32'9115.8
2017-Nov-16 00:03N 17°59' W 063°05'1 0.1
2017-Nov-15 09:56N 18°00' W 063°05'8212.3
2017-Nov-15 03:17N 16°45' W 062°31'413.8
2017-Nov-15 03:00N 16°42' W 062°28'713.9
2017-Nov-15 02:30N 16°37' W 062°23'713.5
2017-Nov-15 02:01N 16°32' W 062°19'713.7
2017-Nov-15 01:30N 16°27' W 062°14'713.8
2017-Nov-15 01:00N 16°22' W 062°09'713.7
2017-Nov-15 00:30N 16°17' W 062°05'713.3
2017-Nov-15 00:00N 16°11' W 061°60'813.3
2017-Nov-14 23:24N 16°05' W 061°55'613.4
2017-Nov-14 22:56N 16°00' W 061°50'613.5
2017-Nov-14 22:30N 15°56' W 061°46'1113.0
2017-Nov-14 21:41N 15°56' W 061°35'912.8
2017-Nov-14 20:58N 16°04' W 061°30'710.5
2017-Nov-14 20:20N 16°10' W 061°33'310.5
2017-Nov-14 20:01N 16°13' W 061°32'1 0.2
2017-Nov-14 16:46N 16°14' W 061°33'  

Dump ship's entire track history